Main page
METAR-TAF:

METAR-TAF

Airports :

Houari Boumediene Airport

Algiers, Algeria

latitude: 36-43N, longitude: 003-15E, elevation: 25 m

Current weather observation

The report was made 23 minutes ago, at 23:30 UTC
Calm wind
Temperature 17°C
Humidity 94%
Pressure 1015 hPa
Visibility 10 km or more
Few clouds at a height of 2000 ft
Scattered clouds at a height of 20000 ft

METAR: DAAG 012330Z 00000KT 9999 FEW020 SCT200 17/16 Q1015

Time: 00:53 (23:53 UTC)

Forecast

The report was made 53 minutes ago, at 23:00 UTC
Forecast valid from 02 at 00 UTC to 02 at 24 UTC
Wind 2 kt from variable directions
Visibility 10 km or more
Few clouds at a height of 2000 ft
Scattered clouds at a height of 20000 ft
Probability 30% :
Temporary
from 02 at 00 UTC to 02 at 06 UTC
Few clouds at a height of 2600 ft, Towering cumulus.
Becoming
from 02 at 08 UTC to 02 at 11 UTC
Wind 10 kt from the Northeast

TAF: DAAG 012300Z 0200/0224 VRB02KT 9999 FEW020 SCT200 PROB30 TEMPO 0200/0206 FEW026TCU BECMG 0208/0211 04010KT

Weather observations and forecasts of more than 4000 airports (METAR and TAF reports).

The available stations are represented by yellow and red dots on the map.

Hover mouse over dot to see the name of the station.

Then click to see weather observations and forecasts.

To change the map : click on the green buttons with a black cross to zoom in, on the green button with a dash to zoom out, or on the green arrows for adjacent maps.


METAR-TAF: